Wetterdaten: Woche 15.02.10 - 21.02.10 (KW7)
Datum Zeit Temp. A. Feuchte A. Luftdruck Regen Wind Richtung Taupunkt Windchill Windben
15.02.2010 00:00 -3,6 C 88 % 1009,8 hPa 0,0 l/m 0,0 km/h SO -5,3 C -3,6 C 0,0 km/h
15.02.2010 01:00 -3,9 C 88 % 1009,6 hPa 0,0 l/m 0,0 km/h SO -5,6 C -3,9 C 0,0 km/h
15.02.2010 02:00 -4,7 C 89 % 1009,2 hPa 0,0 l/m 0,0 km/h NO -6,2 C -4,7 C 0,0 km/h
15.02.2010 03:00 -4,9 C 90 % 1008,6 hPa 0,0 l/m 0,0 km/h N-NO -6,3 C -4,9 C 0,0 km/h
15.02.2010 04:00 -5,1 C 90 % 1008,5 hPa 0,0 l/m 0,0 km/h NO -6,5 C -5,1 C 0,0 km/h
15.02.2010 05:00 -6,2 C 89 % 1008,3 hPa 0,0 l/m 0,0 km/h NO -7,7 C -6,2 C 0,0 km/h
15.02.2010 06:00 -7,0 C 90 % 1008,0 hPa 0,0 l/m 0,0 km/h O-NO -8,4 C -7,0 C 0,0 km/h
15.02.2010 07:00 -6,4 C 91 % 1008,0 hPa 0,0 l/m 0,0 km/h O-NO -7,6 C -6,4 C 0,0 km/h
15.02.2010 08:00 -5,3 C 91 % 1007,9 hPa 0,0 l/m 0,0 km/h O-NO -6,5 C -5,3 C 0,0 km/h
15.02.2010 09:00 -2,3 C 86 % 1007,6 hPa 0,0 l/m 0,0 km/h S-SO -4,3 C -2,3 C 0,0 km/h
15.02.2010 10:00 5,6 C 64 % 1007,3 hPa 0,0 l/m 0,0 km/h S-SW -0,7 C 5,6 C 0,0 km/h
15.02.2010 11:00 6,7 C 56 % 1007,3 hPa 0,4 l/m 0,0 km/h SW -1,4 C 6,7 C 0,0 km/h
15.02.2010 12:00 7,4 C 53 % 1006,7 hPa 0,0 l/m 0,0 km/h S-SW -1,5 C 7,4 C 0,0 km/h
15.02.2010 13:00 4,1 C 55 % 1006,1 hPa 0,4 l/m 0,0 km/h SO -4,1 C 4,1 C 0,0 km/h
15.02.2010 14:00 3,6 C 57 % 1005,6 hPa 0,0 l/m 0,0 km/h S -4,1 C 3,6 C 0,0 km/h
15.02.2010 15:00 2,6 C 58 % 1005,2 hPa 0,4 l/m 0,0 km/h S -4,8 C 2,6 C 0,0 km/h
15.02.2010 16:00 0,8 C 65 % 1004,9 hPa 0,0 l/m 0,0 km/h W -5,0 C 0,8 C 0,0 km/h
15.02.2010 17:00 -0,6 C 72 % 1004,7 hPa 0,0 l/m 0,0 km/h SW -5,0 C -0,6 C 0,0 km/h
15.02.2010 18:00 -1,1 C 76 % 1004,8 hPa 0,0 l/m 0,0 km/h W-SW -4,8 C -1,1 C 0,0 km/h
15.02.2010 19:00 -1,3 C 76 % 1004,8 hPa 0,0 l/m 0,0 km/h W-SW -5,0 C -1,3 C 0,0 km/h
15.02.2010 20:00 -1,6 C 77 % 1004,8 hPa 0,0 l/m 0,0 km/h S -5,1 C -1,6 C 0,0 km/h
15.02.2010 21:00 -2,7 C 78 % 1004,7 hPa 0,0 l/m 1,1 km/h SO -6,0 C -2,7 C 1,1 km/h
15.02.2010 22:00 -5,7 C 83 % 1004,7 hPa 0,0 l/m 0,0 km/h O -8,1 C -5,7 C 0,0 km/h
15.02.2010 23:00 -6,6 C 86 % 1004,8 hPa 0,0 l/m 0,0 km/h SO -8,5 C -6,6 C 0,0 km/h
16.02.2010 00:00 -6,8 C 88 % 1004,6 hPa 0,0 l/m 0,7 km/h O -8,4 C -6,8 C 0,7 km/h
16.02.2010 01:00 -7,4 C 88 % 1004,2 hPa 0,0 l/m 0,0 km/h O-SO -9,0 C -7,4 C 0,0 km/h
16.02.2010 02:00 -7,1 C 88 % 1003,9 hPa 0,0 l/m 0,0 km/h SO -8,7 C -7,1 C 0,0 km/h
16.02.2010 03:00 -7,6 C 88 % 1003,2 hPa 0,0 l/m 1,1 km/h NO -9,2 C -7,6 C 1,1 km/h
16.02.2010 04:00 -8,0 C 88 % 1003,1 hPa 0,0 l/m 0,0 km/h O-SO -9,6 C -8,0 C 0,0 km/h
16.02.2010 05:00 -8,2 C 88 % 1002,7 hPa 0,0 l/m 4,0 km/h O-NO -9,8 C -8,2 C 4,0 km/h
16.02.2010 06:00 -8,9 C 88 % 1002,7 hPa 0,0 l/m 0,0 km/h O-NO -10,5 C -8,9 C 0,0 km/h
16.02.2010 07:00 -9,6 C 89 % 1002,4 hPa 0,0 l/m 0,0 km/h O-SO -11,1 C -9,6 C 0,0 km/h
16.02.2010 08:00 -7,4 C 90 % 1002,5 hPa 0,0 l/m 0,0 km/h SO -8,8 C -7,4 C 0,0 km/h
16.02.2010 09:00 0,4 C 72 % 1002,2 hPa 0,0 l/m 0,0 km/h SO -4,0 C 0,4 C 0,0 km/h
16.02.2010 10:00 5,5 C 57 % 1002,0 hPa 0,0 l/m 0,0 km/h W -2,3 C 5,5 C 0,0 km/h
16.02.2010 11:00 6,1 C 50 % 1001,5 hPa 0,0 l/m 0,0 km/h O-SO -3,5 C 6,1 C 0,0 km/h
16.02.2010 12:00 6,4 C 52 % 1000,8 hPa 0,0 l/m 0,0 km/h W-SW -2,7 C 6,4 C 0,0 km/h
16.02.2010 13:00 5,8 C 53 % 1000,0 hPa 0,0 l/m 1,4 km/h NW -3,0 C 5,8 C 1,4 km/h
16.02.2010 14:00 5,1 C 53 % 999,3 hPa 0,0 l/m 0,0 km/h N -3,7 C 5,1 C 0,0 km/h
16.02.2010 15:00 9,1 C 47 % 999,1 hPa 0,0 l/m 0,0 km/h W -1,6 C 9,1 C 0,0 km/h
16.02.2010 16:00 1,9 C 61 % 998,3 hPa 0,0 l/m 0,0 km/h S -4,8 C 1,9 C 0,0 km/h
16.02.2010 17:00 -0,4 C 71 % 998,2 hPa 0,0 l/m 0,0 km/h O-SO -5,0 C -0,4 C 0,0 km/h
16.02.2010 18:00 -1,4 C 77 % 998,1 hPa 0,0 l/m 0,0 km/h NO -4,9 C -1,4 C 0,0 km/h
16.02.2010 19:00 -3,0 C 83 % 997,8 hPa 0,0 l/m 0,0 km/h NO -5,5 C -3,0 C 0,0 km/h
16.02.2010 20:00 -3,6 C 86 % 997,3 hPa 0,0 l/m 0,0 km/h NO -5,6 C -3,6 C 0,0 km/h
16.02.2010 21:00 -2,7 C 87 % 997,5 hPa 0,0 l/m 0,0 km/h NO -4,6 C -2,7 C 0,0 km/h
16.02.2010 22:00 -2,2 C 87 % 996,8 hPa 0,0 l/m 0,0 km/h NO -4,1 C -2,2 C 0,0 km/h
16.02.2010 23:00 -2,4 C 87 % 996,6 hPa 0,0 l/m 0,0 km/h NO -4,3 C -2,4 C 0,0 km/h
17.02.2010 00:00 -2,1 C 87 % 996,7 hPa 0,0 l/m 0,0 km/h NO -4,0 C -2,1 C 0,0 km/h
17.02.2010 01:00 -2,0 C 87 % 995,5 hPa 0,0 l/m 0,0 km/h O-NO -3,9 C -2,0 C 0,0 km/h
17.02.2010 02:00 -1,8 C 87 % 995,3 hPa 0,0 l/m 0,0 km/h O-NO -3,7 C -1,8 C 0,0 km/h
17.02.2010 03:00 -2,8 C 88 % 994,6 hPa 0,0 l/m 0,0 km/h O-NO -4,5 C -2,8 C 0,0 km/h
17.02.2010 04:00 -1,9 C 89 % 994,8 hPa 0,0 l/m 0,0 km/h NO -3,5 C -1,9 C 0,0 km/h
17.02.2010 05:00 -2,4 C 89 % 994,3 hPa 0,0 l/m 0,0 km/h O-NO -4,0 C -2,4 C 0,0 km/h
17.02.2010 06:00 -2,9 C 89 % 994,1 hPa 0,0 l/m 0,0 km/h NO -4,5 C -2,9 C 0,0 km/h
17.02.2010 07:00 -1,5 C 89 % 993,8 hPa 0,0 l/m 0,0 km/h O-SO -3,1 C -1,5 C 0,0 km/h
17.02.2010 08:00 -0,2 C 88 % 993,7 hPa 0,4 l/m 0,0 km/h NW -1,9 C -0,2 C 0,0 km/h
17.02.2010 09:00 1,3 C 86 % 992,8 hPa 0,0 l/m 0,0 km/h W -0,8 C 1,3 C 0,0 km/h
17.02.2010 10:00 2,7 C 83 % 992,6 hPa 0,0 l/m 0,7 km/h SW 0,1 C 2,7 C 0,7 km/h
17.02.2010 11:00 3,6 C 77 % 993,6 hPa 0,0 l/m 0,0 km/h N -0,0 C 3,6 C 0,0 km/h
17.02.2010 12:00 2,9 C 80 % 992,9 hPa 0,0 l/m 0,0 km/h NO -0,2 C 2,9 C 0,0 km/h
17.02.2010 13:00 4,3 C 76 % 993,4 hPa 0,0 l/m 0,0 km/h O 0,5 C 4,3 C 0,0 km/h
17.02.2010 14:00 3,5 C 77 % 992,9 hPa 0,4 l/m 0,0 km/h O-NO -0,1 C 3,5 C 0,0 km/h
17.02.2010 15:00 3,0 C 82 % 992,6 hPa 0,0 l/m 0,0 km/h SO 0,2 C 3,0 C 0,0 km/h
17.02.2010 16:00 2,9 C 87 % 991,7 hPa 0,0 l/m 0,0 km/h S-SW 1,0 C 2,9 C 0,0 km/h
17.02.2010 17:00 2,1 C 89 % 991,5 hPa 0,4 l/m 0,7 km/h S 0,5 C 2,1 C 0,7 km/h
17.02.2010 18:00 1,1 C 91 % 992,7 hPa 0,0 l/m 0,7 km/h N-NO -0,2 C 1,1 C 0,7 km/h
17.02.2010 19:00 0,9 C 92 % 992,9 hPa 0,0 l/m 0,0 km/h O-NO -0,2 C 0,9 C 0,0 km/h
17.02.2010 20:00 0,9 C 92 % 993,0 hPa 0,0 l/m 0,0 km/h SO -0,2 C 0,9 C 0,0 km/h
17.02.2010 21:00 1,0 C 93 % 992,9 hPa 0,0 l/m 0,0 km/h O-NO -0,0 C 1,0 C 0,0 km/h
17.02.2010 22:00 0,7 C 93 % 992,9 hPa 0,0 l/m 0,0 km/h NO -0,3 C 0,7 C 0,0 km/h
17.02.2010 23:00 -0,2 C 93 % 993,7 hPa 0,0 l/m 0,0 km/h O-SO -1,2 C -0,2 C 0,0 km/h
18.02.2010 00:00 0,3 C 93 % 993,8 hPa 0,0 l/m 0,0 km/h O-SO -0,7 C 0,3 C 0,0 km/h
18.02.2010 01:00 1,4 C 94 % 993,2 hPa 0,0 l/m 0,0 km/h W-SW 0,5 C 1,4 C 0,0 km/h
18.02.2010 02:00 1,2 C 94 % 994,2 hPa 0,0 l/m 0,0 km/h NO 0,3 C 1,2 C 0,0 km/h
18.02.2010 03:00 1,5 C 94 % 993,8 hPa 0,0 l/m 0,0 km/h O-NO 0,6 C 1,5 C 0,0 km/h
18.02.2010 04:00 1,6 C 94 % 994,1 hPa 0,0 l/m 0,0 km/h O-SO 0,7 C 1,6 C 0,0 km/h
18.02.2010 05:00 2,1 C 94 % 994,6 hPa 0,0 l/m 0,0 km/h O-NO 1,2 C 2,1 C 0,0 km/h
18.02.2010 06:00 2,1 C 94 % 995,2 hPa 0,0 l/m 0,0 km/h O-NO 1,2 C 2,1 C 0,0 km/h
18.02.2010 07:00 2,6 C 94 % 995,8 hPa 0,0 l/m 0,0 km/h N-NO 1,7 C 2,6 C 0,0 km/h
18.02.2010 08:00 4,4 C 94 % 996,9 hPa 0,0 l/m 0,0 km/h SW 3,5 C 4,4 C 0,0 km/h
18.02.2010 09:00 6,6 C 92 % 997,4 hPa 0,0 l/m 0,0 km/h SW 5,4 C 6,6 C 0,0 km/h
18.02.2010 10:00 7,3 C 88 % 998,1 hPa 0,0 l/m 9,4 km/h SW 5,4 C 5,0 C 9,4 km/h
18.02.2010 11:00 7,8 C 86 % 999,0 hPa 0,0 l/m 9,0 km/h S-SW 5,6 C 5,8 C 9,0 km/h
18.02.2010 12:00 8,4 C 83 % 998,9 hPa 0,0 l/m 5,0 km/h SW 5,7 C 8,4 C 5,0 km/h
18.02.2010 13:00 8,5 C 81 % 998,8 hPa 0,0 l/m 10,8 km/h S-SW 5,4 C 5,5 C 10,8 km/h
18.02.2010 14:00 8,6 C 81 % 998,7 hPa 0,0 l/m 4,7 km/h S-SW 5,5 C 8,6 C 4,7 km/h
18.02.2010 15:00 9,4 C 76 % 998,0 hPa 0,0 l/m 11,2 km/h S 5,4 C 6,2 C 11,2 km/h
18.02.2010 16:00 10,0 C 71 % 997,9 hPa 0,0 l/m 2,5 km/h S-SO 5,0 C 10,0 C 2,5 km/h
18.02.2010 17:00 7,9 C 78 % 998,2 hPa 0,0 l/m 5,8 km/h S-SO 4,3 C 7,9 C 5,8 km/h
18.02.2010 18:00 5,9 C 79 % 998,9 hPa 0,0 l/m 0,4 km/h SO 2,5 C 5,9 C 0,4 km/h
18.02.2010 19:00 2,9 C 85 % 999,5 hPa 0,0 l/m 0,7 km/h SO 0,6 C 2,9 C 0,7 km/h
18.02.2010 20:00 1,6 C 90 % 999,3 hPa 0,0 l/m 0,0 km/h O-SO 0,1 C 1,6 C 0,0 km/h
18.02.2010 21:00 1,4 C 92 % 998,8 hPa 0,0 l/m 0,0 km/h O 0,2 C 1,4 C 0,0 km/h
18.02.2010 22:00 1,6 C 93 % 998,2 hPa 0,0 l/m 0,0 km/h O-NO 0,6 C 1,6 C 0,0 km/h
18.02.2010 23:00 1,4 C 93 % 997,9 hPa 0,0 l/m 1,1 km/h O-NO 0,4 C 1,4 C 1,1 km/h
19.02.2010 00:00 1,6 C 93 % 997,4 hPa 0,0 l/m 0,0 km/h O-NO 0,6 C 1,6 C 0,0 km/h
19.02.2010 01:00 1,5 C 93 % 996,7 hPa 0,0 l/m 0,0 km/h O-SO 0,5 C 1,5 C 0,0 km/h
19.02.2010 02:00 1,0 C 93 % 996,2 hPa 0,0 l/m 0,0 km/h N -0,0 C 1,0 C 0,0 km/h
19.02.2010 03:00 1,2 C 93 % 994,9 hPa 0,0 l/m 0,0 km/h N-NO 0,2 C 1,2 C 0,0 km/h
19.02.2010 04:00 1,2 C 93 % 993,9 hPa 0,0 l/m 0,0 km/h NO 0,2 C 1,2 C 0,0 km/h
19.02.2010 05:00 1,1 C 93 % 992,9 hPa 0,0 l/m 0,0 km/h O-NO 0,1 C 1,1 C 0,0 km/h
19.02.2010 06:00 1,2 C 94 % 992,4 hPa 0,0 l/m 0,0 km/h NO 0,3 C 1,2 C 0,0 km/h
19.02.2010 07:00 1,8 C 94 % 992,8 hPa 0,0 l/m 0,0 km/h NO 0,9 C 1,8 C 0,0 km/h
19.02.2010 08:00 2,4 C 94 % 992,5 hPa 0,4 l/m 0,0 km/h NO 1,5 C 2,4 C 0,0 km/h
19.02.2010 09:00 3,3 C 94 % 992,1 hPa 0,4 l/m 0,0 km/h NO 2,4 C 3,3 C 0,0 km/h
19.02.2010 10:00 4,6 C 94 % 991,9 hPa 0,4 l/m 0,0 km/h W 3,7 C 4,6 C 0,0 km/h
19.02.2010 11:00 4,5 C 93 % 991,8 hPa 0,4 l/m 0,7 km/h W 3,5 C 4,5 C 0,7 km/h
19.02.2010 12:00 4,5 C 93 % 991,7 hPa 0,7 l/m 1,1 km/h W 3,5 C 4,5 C 1,1 km/h
19.02.2010 13:00 4,3 C 94 % 992,0 hPa 0,7 l/m 0,0 km/h W 3,4 C 4,3 C 0,0 km/h
19.02.2010 14:00 4,4 C 94 % 992,3 hPa 0,7 l/m 0,0 km/h S-SO 3,5 C 4,4 C 0,0 km/h
19.02.2010 15:00 4,4 C 94 % 992,8 hPa 0,7 l/m 0,0 km/h SO 3,5 C 4,4 C 0,0 km/h
19.02.2010 16:00 4,4 C 93 % 993,2 hPa 0,4 l/m 0,0 km/h S 3,4 C 4,4 C 0,0 km/h
19.02.2010 17:00 3,8 C 93 % 994,4 hPa 0,7 l/m 0,0 km/h S-SO 2,8 C 3,8 C 0,0 km/h
19.02.2010 18:00 3,2 C 94 % 995,3 hPa 0,0 l/m 0,0 km/h W-SW 2,3 C 3,2 C 0,0 km/h
19.02.2010 19:00 2,3 C 94 % 996,5 hPa 0,0 l/m 0,0 km/h W-NW 1,4 C 2,3 C 0,0 km/h
19.02.2010 20:00 1,8 C 94 % 997,3 hPa 0,0 l/m 0,0 km/h O-NO 0,9 C 1,8 C 0,0 km/h
19.02.2010 21:00 1,3 C 93 % 998,2 hPa 0,0 l/m 0,0 km/h SO 0,3 C 1,3 C 0,0 km/h
19.02.2010 22:00 1,1 C 94 % 998,6 hPa 0,0 l/m 0,0 km/h O-SO 0,2 C 1,1 C 0,0 km/h
19.02.2010 23:00 0,5 C 94 % 998,8 hPa 0,0 l/m 0,0 km/h O-NO -0,4 C 0,5 C 0,0 km/h
20.02.2010 00:00 0,3 C 94 % 999,4 hPa 0,0 l/m 0,0 km/h NO -0,5 C 0,3 C 0,0 km/h
20.02.2010 01:00 0,1 C 94 % 999,3 hPa 0,0 l/m 0,0 km/h NO -0,7 C 0,1 C 0,0 km/h
20.02.2010 02:00 -0,7 C 95 % 999,3 hPa 0,0 l/m 0,0 km/h NO -1,4 C -0,7 C 0,0 km/h
20.02.2010 03:00 -1,6 C 94 % 999,1 hPa 0,0 l/m 0,0 km/h O-NO -2,4 C -1,6 C 0,0 km/h
20.02.2010 04:00 -1,9 C 94 % 999,2 hPa 0,0 l/m 0,0 km/h O-NO -2,7 C -1,9 C 0,0 km/h
20.02.2010 05:00 -2,3 C 94 % 999,1 hPa 0,0 l/m 0,0 km/h O-NO -3,1 C -2,3 C 0,0 km/h
20.02.2010 06:00 -2,5 C 94 % 998,8 hPa 0,0 l/m 0,0 km/h O-NO -3,3 C -2,5 C 0,0 km/h
20.02.2010 07:00 -2,2 C 95 % 999,3 hPa 0,0 l/m 0,0 km/h O-NO -2,9 C -2,2 C 0,0 km/h
20.02.2010 08:00 -0,7 C 95 % 999,9 hPa 0,0 l/m 0,0 km/h O-NO -1,4 C -0,7 C 0,0 km/h
20.02.2010 09:00 0,1 C 95 % 999,8 hPa 0,0 l/m 0,0 km/h O-NO -0,6 C 0,1 C 0,0 km/h
20.02.2010 10:00 1,3 C 95 % 999,9 hPa 0,0 l/m 0,0 km/h S 0,6 C 1,3 C 0,0 km/h
20.02.2010 11:00 2,7 C 85 % 1000,1 hPa 0,0 l/m 13,3 km/h S-SW 0,4 C -2,7 C 13,3 km/h
20.02.2010 12:00 4,5 C 74 % 999,6 hPa 0,0 l/m 18,7 km/h W-SW 0,3 C -3,3 C 18,7 km/h
20.02.2010 13:00 6,4 C 70 % 999,3 hPa 0,0 l/m 11,9 km/h S-SW 1,3 C 2,4 C 11,9 km/h
20.02.2010 14:00 6,4 C 68 % 999,0 hPa 0,0 l/m 14,4 km/h S 0,9 C 1,1 C 14,4 km/h
20.02.2010 15:00 5,4 C 69 % 998,7 hPa 0,0 l/m 10,8 km/h SW 0,2 C 2,0 C 10,8 km/h
20.02.2010 16:00 5,3 C 66 % 999,0 hPa 0,0 l/m 16,6 km/h W -0,5 C -1,3 C 16,6 km/h
20.02.2010 17:00 3,3 C 80 % 1000,2 hPa 0,0 l/m 8,3 km/h S-SW 0,2 C 1,6 C 8,3 km/h
20.02.2010 18:00 2,6 C 86 % 1000,8 hPa 0,0 l/m 10,4 km/h W-SW 0,5 C -0,9 C 10,4 km/h
20.02.2010 19:00 2,5 C 87 % 1001,2 hPa 0,0 l/m 12,6 km/h SW 0,6 C -2,5 C 12,6 km/h
20.02.2010 20:00 2,4 C 87 % 1001,9 hPa 0,0 l/m 13,7 km/h SW 0,5 C -3,3 C 13,7 km/h
20.02.2010 21:00 2,3 C 87 % 1002,5 hPa 0,0 l/m 12,2 km/h S-SW 0,4 C -2,5 C 12,2 km/h
20.02.2010 22:00 2,3 C 86 % 1002,5 hPa 0,0 l/m 0,0 km/h S-SW 0,2 C 2,3 C 0,0 km/h
20.02.2010 23:00 2,7 C 81 % 1003,1 hPa 0,0 l/m 6,8 km/h S-SO -0,2 C 2,3 C 6,8 km/h
21.02.2010 00:00 2,3 C 80 % 1003,3 hPa 0,0 l/m 3,6 km/h S-SO -0,8 C 2,3 C 3,6 km/h
21.02.2010 01:00 1,6 C 80 % 1003,4 hPa 0,0 l/m 8,6 km/h SW -1,5 C -0,5 C 8,6 km/h
21.02.2010 02:00 1,6 C 81 % 1003,6 hPa 0,0 l/m 9,4 km/h W-SW -1,3 C -1,2 C 9,4 km/h
21.02.2010 03:00 1,4 C 82 % 1003,2 hPa 0,0 l/m 0,0 km/h O-SO -1,3 C 1,4 C 0,0 km/h
21.02.2010 04:00 0,4 C 86 % 1002,6 hPa 0,0 l/m 0,0 km/h W-SW -1,7 C 0,4 C 0,0 km/h
21.02.2010 05:00 1,4 C 83 % 1002,6 hPa 0,0 l/m 0,0 km/h W -1,2 C 1,4 C 0,0 km/h
21.02.2010 06:00 1,4 C 81 % 1002,2 hPa 0,0 l/m 0,0 km/h O -1,5 C 1,4 C 0,0 km/h
21.02.2010 07:00 0,9 C 85 % 1001,9 hPa 0,0 l/m 0,0 km/h NO -1,3 C 0,9 C 0,0 km/h
21.02.2010 08:00 2,7 C 80 % 1002,0 hPa 0,0 l/m 0,0 km/h O-NO -0,4 C 2,7 C 0,0 km/h
21.02.2010 09:00 4,5 C 73 % 1001,8 hPa 0,0 l/m 0,0 km/h S-SW 0,1 C 4,5 C 0,0 km/h
21.02.2010 10:00 8,4 C 65 % 1001,6 hPa 0,0 l/m 14,4 km/h S-SW 2,2 C 3,5 C 14,4 km/h
21.02.2010 11:00 7,6 C 66 % 1001,5 hPa 0,0 l/m 11,5 km/h SW 1,7 C 4,0 C 11,5 km/h
21.02.2010 12:00 9,6 C 64 % 1000,8 hPa 0,0 l/m 15,8 km/h S 3,1 C 4,3 C 15,8 km/h
21.02.2010 13:00 10,5 C 62 % 1000,0 hPa 0,0 l/m 6,1 km/h SW 3,5 C 10,5 C 6,1 km/h
21.02.2010 14:00 11,6 C 57 % 999,2 hPa 0,0 l/m 9,0 km/h W 3,4 C 9,9 C 9,0 km/h
21.02.2010 15:00 9,9 C 59 % 998,5 hPa 0,0 l/m 0,0 km/h W 2,3 C 9,9 C 0,0 km/h
21.02.2010 16:00 9,1 C 62 % 997,7 hPa 0,0 l/m 0,0 km/h O-NO 2,2 C 9,1 C 0,0 km/h
21.02.2010 17:00 6,1 C 69 % 997,7 hPa 0,0 l/m 0,0 km/h NO 0,8 C 6,1 C 0,0 km/h
21.02.2010 18:00 4,1 C 76 % 998,0 hPa 0,0 l/m 0,0 km/h O-NO 0,3 C 4,1 C 0,0 km/h
21.02.2010 19:00 3,1 C 81 % 998,3 hPa 0,0 l/m 0,0 km/h O-NO 0,2 C 3,1 C 0,0 km/h
21.02.2010 20:00 2,4 C 82 % 998,0 hPa 0,0 l/m 0,0 km/h O-SO -0,4 C 2,4 C 0,0 km/h
21.02.2010 21:00 3,4 C 78 % 997,6 hPa 0,0 l/m 4,0 km/h O-SO -0,1 C 3,4 C 4,0 km/h
21.02.2010 22:00 3,6 C 76 % 997,5 hPa 0,0 l/m 9,0 km/h N-NO -0,2 C 1,3 C 9,0 km/h
21.02.2010 23:00 3,6 C 76 % 997,2 hPa 0,0 l/m 1,8 km/h W -0,2 C 3,6 C 1,8 km/h
Min-Datum _ 16.02.10 16.02.10 17.02.10 - 15.02.10 - 16.02.10 16.02.10 15.02.10
_ Min-Zeit 07:53 15:53 17:53 - 00:53 - 07:53 07:53 00:53
Minimum _ -9,6 C 47 % 991,5 hPa - 0,0 km/h - -11,1 C -9,6 C 0,0 km/h
Max-Datum _ 21.02.10 20.02.10 15.02.10 19.02.10 20.02.10 - 18.02.10 21.02.10 20.02.10
_ Max-Zeit 14:53 02:53 00:53 12:53 12:53 - 12:53 13:53 12:53
Maximum _ 11,6 C 95 % 1009,8 hPa 0,7 l/m 18,7 km/h
W-SW
- 5,7 C 10,5 C 18,7 km/h
W-SW
Durchschnitt _ 1,5 C 83 % 999,0 hPa #7,5 l/m 1,9 km/h O-NO -1,3 C 0,9 C 1,9 km/h